Time;durP1;ratioP1;P1;durP2;ratioP2;P2;SDS_P1;SDS_P2;PMS_P1;PMS_P2;Temp;Humidity;BMP_temperature;BMP_pressure;BME280_temperature;BME280_humidity;BME280_pressure;Samples;Min_cycle;Max_cycle;Signal;HPM_P1;HPM_P2
2021/10/26 00:00:02;;;;;;;0.10;0.00;;;4.40;56.30;;;;;;5052412;28;20029;-75
2021/10/26 00:02:28;;;;;;;0.00;0.00;;;4.40;55.80;;;;;;5053274;28;20489;-75
2021/10/26 00:04:54;;;;;;;0.00;0.00;;;4.40;55.80;;;;;;5053534;28;20056;-74
2021/10/26 00:07:19;;;;;;;0.52;0.00;;;4.40;55.80;;;;;;5068717;28;20029;-75
2021/10/26 00:09:45;;;;;;;0.00;0.00;;;4.40;55.80;;;;;;5054005;28;20029;-75
2021/10/26 00:12:11;;;;;;;0.00;0.00;;;4.40;55.80;;;;;;5053365;28;20032;-75
2021/10/26 00:14:37;;;;;;;0.00;0.00;;;4.40;55.90;;;;;;5053788;28;20052;-75
2021/10/26 00:17:03;;;;;;;0.00;0.00;;;4.40;56.00;;;;;;5054062;28;20449;-74
2021/10/26 00:19:28;;;;;;;0.00;0.00;;;4.40;56.00;;;;;;5053529;28;20029;-75
2021/10/26 00:21:54;;;;;;;0.00;0.00;;;4.40;56.20;;;;;;5053322;28;20021;-74
2021/10/26 00:24:20;;;;;;;0.00;0.00;;;4.30;56.20;;;;;;5053678;28;20099;-75
2021/10/26 00:26:46;;;;;;;0.00;0.00;;;4.30;56.20;;;;;;5052539;28;20103;-74
2021/10/26 00:29:11;;;;;;;0.00;0.00;;;4.30;56.20;;;;;;5053162;28;20472;-75
2021/10/26 00:31:37;;;;;;;0.00;0.00;;;4.30;56.20;;;;;;5053757;28;20028;-74
2021/10/26 00:34:04;;;;;;;0.00;0.00;;;4.30;56.20;;;;;;5053246;28;20420;-75
2021/10/26 00:36:30;;;;;;;0.00;0.00;;;4.30;56.20;;;;;;5052826;28;20553;-73
2021/10/26 00:38:56;;;;;;;0.00;0.00;;;4.30;56.20;;;;;;5056688;28;20450;-75
2021/10/26 00:41:22;;;;;;;0.00;0.00;;;4.30;56.30;;;;;;5038844;28;20472;-74
2021/10/26 00:43:49;;;;;;;0.00;0.00;;;4.30;56.60;;;;;;5056428;28;20025;-74
2021/10/26 00:46:29;;;;;;;0.00;0.00;;;4.30;56.80;;;;;;5055260;28;20067;-74
2021/10/26 00:48:55;;;;;;;0.00;0.00;;;4.20;56.90;;;;;;5056818;28;20068;-74
2021/10/26 00:51:22;;;;;;;0.00;0.00;;;4.20;56.90;;;;;;5056558;28;20078;-74
2021/10/26 00:53:48;;;;;;;0.00;0.00;;;4.20;57.00;;;;;;5056825;28;20471;-75
2021/10/26 00:56:14;;;;;;;0.00;0.00;;;4.20;57.10;;;;;;5056325;28;20024;-75
2021/10/26 00:58:40;;;;;;;0.00;0.00;;;4.20;57.10;;;;;;5056723;28;20037;-75
2021/10/26 01:01:05;;;;;;;0.00;0.00;;;4.20;57.10;;;;;;5055447;28;20495;-75
2021/10/26 01:03:31;;;;;;;0.00;0.00;;;4.10;57.10;;;;;;5056323;28;20102;-75
2021/10/26 01:05:57;;;;;;;0.00;0.00;;;4.10;57.10;;;;;;5054964;28;20032;-75
2021/10/26 01:08:23;;;;;;;0.00;0.00;;;4.10;57.20;;;;;;5054888;28;20123;-75
2021/10/26 01:10:51;;;;;;;0.00;0.00;;;4.10;57.20;;;;;;5056224;28;20036;-75
2021/10/26 01:13:22;;;;;;;0.00;0.00;;;4.10;57.20;;;;;;5054922;28;20094;-75
2021/10/26 01:15:48;;;;;;;0.00;0.00;;;4.10;57.30;;;;;;5055051;28;20032;-74
2021/10/26 01:18:14;;;;;;;0.00;0.00;;;4.10;57.30;;;;;;5056502;28;20025;-74
2021/10/26 01:20:40;;;;;;;0.00;0.00;;;4.10;57.40;;;;;;5055975;28;20025;-75
2021/10/26 01:23:05;;;;;;;0.00;0.00;;;4.00;57.50;;;;;;5071232;28;20045;-74
2021/10/26 01:25:31;;;;;;;0.05;0.00;;;4.10;57.50;;;;;;5056284;28;20056;-74
2021/10/26 01:27:58;;;;;;;0.00;0.00;;;4.10;57.60;;;;;;5055562;28;20110;-75
2021/10/26 01:30:31;;;;;;;0.00;0.00;;;4.00;58.20;;;;;;5055799;28;20047;-75
2021/10/26 01:32:57;;;;;;;0.00;0.00;;;4.10;57.70;;;;;;5054922;28;20100;-74
2021/10/26 01:35:23;;;;;;;0.00;0.00;;;4.10;57.60;;;;;;5055494;28;20037;-75
2021/10/26 01:37:49;;;;;;;0.00;0.00;;;4.10;57.60;;;;;;5056028;28;20025;-75
2021/10/26 01:40:15;;;;;;;0.00;0.00;;;4.10;57.60;;;;;;5055511;28;20052;-73
2021/10/26 01:42:41;;;;;;;0.00;0.00;;;4.20;57.60;;;;;;5056039;28;20048;-75
2021/10/26 01:45:08;;;;;;;0.00;0.00;;;4.20;58.20;;;;;;5055794;28;20053;-74
2021/10/26 01:47:34;;;;;;;0.00;0.00;;;4.20;57.60;;;;;;5055648;28;20032;-75
2021/10/26 01:49:59;;;;;;;0.00;0.00;;;4.20;57.60;;;;;;5055791;28;20446;-74
2021/10/26 01:52:25;;;;;;;0.00;0.00;;;4.20;57.60;;;;;;5055933;28;20104;-75
2021/10/26 01:54:51;;;;;;;0.00;0.00;;;4.20;57.70;;;;;;5055097;28;20036;-74
2021/10/26 01:57:19;;;;;;;0.00;0.00;;;4.10;57.70;;;;;;5055643;28;20029;-74
2021/10/26 01:59:46;;;;;;;0.00;0.00;;;4.10;57.80;;;;;;5055250;28;20025;-75
2021/10/26 02:02:12;;;;;;;0.00;0.00;;;4.10;57.80;;;;;;5070544;28;20029;-74
2021/10/26 02:04:38;;;;;;;0.00;0.00;;;4.10;57.90;;;;;;5053895;28;20071;-74
2021/10/26 02:07:05;;;;;;;0.00;0.00;;;4.20;57.90;;;;;;5055284;28;20025;-74
2021/10/26 02:09:31;;;;;;;0.00;0.00;;;4.20;57.80;;;;;;5054828;28;20548;-74
2021/10/26 02:11:57;;;;;;;0.00;0.00;;;4.30;57.90;;;;;;5054057;28;20060;-74
2021/10/26 02:14:23;;;;;;;0.00;0.00;;;4.30;57.80;;;;;;5054433;28;20028;-74
2021/10/26 02:16:49;;;;;;;0.00;0.00;;;4.30;57.80;;;;;;5070516;28;20423;-74
2021/10/26 02:19:15;;;;;;;0.00;0.00;;;4.30;57.70;;;;;;5054968;28;20024;-75
2021/10/26 02:21:41;;;;;;;0.00;0.00;;;4.30;57.70;;;;;;5070146;28;20031;-74
2021/10/26 02:24:07;;;;;;;0.00;0.00;;;4.30;57.70;;;;;;5055335;28;20077;-74
2021/10/26 02:26:34;;;;;;;0.00;0.00;;;4.30;57.70;;;;;;5054459;28;20067;-75
2021/10/26 02:29:00;;;;;;;0.00;0.00;;;4.30;57.80;;;;;;5054838;28;20033;-75
2021/10/26 02:31:26;;;;;;;0.00;0.00;;;4.30;57.80;;;;;;5054783;28;20108;-76
2021/10/26 02:33:52;;;;;;;0.00;0.00;;;4.20;57.80;;;;;;5053354;28;20031;-75
2021/10/26 02:36:18;;;;;;;0.00;0.00;;;4.20;57.80;;;;;;5054379;28;20021;-74
2021/10/26 02:38:43;;;;;;;0.00;0.00;;;4.20;57.90;;;;;;5054242;28;20082;-74
2021/10/26 02:41:09;;;;;;;0.00;0.00;;;4.20;57.90;;;;;;5054510;28;20100;-73
2021/10/26 02:43:35;;;;;;;0.00;0.00;;;4.20;58.00;;;;;;5054233;28;20427;-73
2021/10/26 02:46:01;;;;;;;0.00;0.00;;;4.20;58.00;;;;;;5052793;28;20077;-75
2021/10/26 02:48:28;;;;;;;0.00;0.00;;;4.20;58.10;;;;;;5054760;28;20043;-74
2021/10/26 02:50:55;;;;;;;0.00;0.00;;;4.20;58.10;;;;;;5052969;28;20031;-73
2021/10/26 02:53:21;;;;;;;0.00;0.00;;;4.20;58.10;;;;;;5054226;28;20036;-75
2021/10/26 02:55:47;;;;;;;0.00;0.00;;;4.20;58.20;;;;;;5054183;28;20029;-74
2021/10/26 02:58:13;;;;;;;0.00;0.00;;;4.20;58.20;;;;;;5054231;28;20056;-73
2021/10/26 03:00:39;;;;;;;0.00;0.00;;;4.20;58.20;;;;;;5054077;28;20064;-74
2021/10/26 03:03:05;;;;;;;0.00;0.00;;;4.20;58.20;;;;;;5053788;28;20100;-74
2021/10/26 03:05:30;;;;;;;0.00;0.00;;;4.10;58.10;;;;;;5054020;28;20031;-74
2021/10/26 03:07:56;;;;;;;0.00;0.00;;;4.10;58.20;;;;;;5053831;28;20048;-75
2021/10/26 03:10:22;;;;;;;0.00;0.00;;;4.10;58.30;;;;;;5053669;28;20025;-74
2021/10/26 03:12:47;;;;;;;0.00;0.00;;;4.10;58.30;;;;;;5052584;28;20461;-74
2021/10/26 03:15:13;;;;;;;0.00;0.00;;;4.10;58.40;;;;;;5053904;28;20036;-74
2021/10/26 03:17:40;;;;;;;0.00;0.00;;;4.00;58.30;;;;;;5052475;28;20053;-75
2021/10/26 03:20:07;;;;;;;0.00;0.00;;;4.10;58.50;;;;;;5053744;28;20025;-74
2021/10/26 03:22:33;;;;;;;0.00;0.00;;;4.00;58.40;;;;;;5054204;28;20029;-74
2021/10/26 03:24:59;;;;;;;0.00;0.00;;;4.00;59.10;;;;;;5054368;28;20491;-74
2021/10/26 03:27:25;;;;;;;0.00;0.00;;;4.00;58.50;;;;;;5053704;28;20021;-74
2021/10/26 03:29:51;;;;;;;0.00;0.00;;;4.00;58.50;;;;;;5052774;28;20369;-75
2021/10/26 03:32:17;;;;;;;0.00;0.00;;;4.00;58.50;;;;;;5053463;28;20029;-73
2021/10/26 03:34:44;;;;;;;0.00;0.00;;;3.90;58.40;;;;;;5053699;28;20513;-74
2021/10/26 03:37:10;;;;;;;0.00;0.00;;;3.90;58.60;;;;;;5053429;28;20033;-74
2021/10/26 03:39:36;;;;;;;0.00;0.00;;;3.90;58.60;;;;;;5053624;28;20035;-75
2021/10/26 03:42:03;;;;;;;0.00;0.00;;;3.80;58.60;;;;;;5053725;28;20419;-74
2021/10/26 03:44:29;;;;;;;0.00;0.00;;;3.80;58.70;;;;;;5069075;28;20112;-75
2021/10/26 03:46:55;;;;;;;0.00;0.00;;;3.70;58.70;;;;;;5053851;28;20473;-73
2021/10/26 03:49:20;;;;;;;0.00;0.00;;;3.70;58.80;;;;;;5053983;28;20041;-74
2021/10/26 03:51:47;;;;;;;0.00;0.00;;;3.70;59.40;;;;;;5053500;28;20527;-75
2021/10/26 03:54:13;;;;;;;0.00;0.00;;;3.60;58.80;;;;;;5053366;28;20477;-74
2021/10/26 03:56:40;;;;;;;0.00;0.00;;;3.60;58.90;;;;;;5053591;28;20078;-75
2021/10/26 03:59:06;;;;;;;0.00;0.00;;;3.60;58.90;;;;;;5052133;28;20040;-75
2021/10/26 04:01:33;;;;;;;0.00;0.00;;;3.60;59.00;;;;;;5053535;28;20075;-75
2021/10/26 04:03:59;;;;;;;0.00;0.00;;;3.50;59.00;;;;;;5069461;28;20063;-75
2021/10/26 04:06:27;;;;;;;0.00;0.00;;;3.50;59.10;;;;;;5053050;28;20473;-73
2021/10/26 04:11:21;;;;;;;0.00;0.00;;;3.40;59.30;;;;;;5054353;28;20351;-73
2021/10/26 04:13:48;;;;;;;0.00;0.00;;;3.40;59.30;;;;;;5056389;28;20048;-73
2021/10/26 04:16:14;;;;;;;0.10;0.00;;;3.40;59.40;;;;;;5072303;28;20111;-75
2021/10/26 04:18:41;;;;;;;0.00;0.00;;;3.40;59.60;;;;;;5057593;28;20040;-75
2021/10/26 04:21:09;;;;;;;0.00;0.00;;;3.40;59.70;;;;;;5057290;28;20028;-75
2021/10/26 04:23:35;;;;;;;0.00;0.00;;;3.40;59.80;;;;;;5055515;28;20095;-75
2021/10/26 04:26:02;;;;;;;0.00;0.00;;;3.40;59.80;;;;;;5056879;28;20048;-74
2021/10/26 04:28:28;;;;;;;0.00;0.00;;;3.40;59.80;;;;;;5072506;28;20037;-75
2021/10/26 04:30:54;;;;;;;0.00;0.00;;;3.40;59.80;;;;;;5056878;28;20021;-74
2021/10/26 04:33:20;;;;;;;0.00;0.00;;;3.40;59.90;;;;;;5056878;28;20103;-73
2021/10/26 04:35:47;;;;;;;0.00;0.00;;;3.40;60.00;;;;;;5055426;28;20524;-75
2021/10/26 04:38:12;;;;;;;0.00;0.00;;;3.40;59.90;;;;;;5057108;28;20029;-75
2021/10/26 04:40:38;;;;;;;0.00;0.00;;;3.40;59.90;;;;;;5056872;28;20442;-75
2021/10/26 04:43:05;;;;;;;0.00;0.00;;;3.50;60.00;;;;;;5056399;28;20525;-75
2021/10/26 04:45:32;;;;;;;0.00;0.00;;;3.50;60.00;;;;;;5056825;28;20381;-74
2021/10/26 04:47:58;;;;;;;0.00;0.00;;;3.50;60.00;;;;;;5072124;28;20033;-75
2021/10/26 04:50:24;;;;;;;0.00;0.00;;;3.50;60.00;;;;;;5056814;28;20107;-74
2021/10/26 04:52:50;;;;;;;0.00;0.00;;;3.50;60.00;;;;;;5056765;28;20025;-74
2021/10/26 04:55:16;;;;;;;0.00;0.00;;;3.50;60.00;;;;;;5056454;28;20021;-76
2021/10/26 04:57:43;;;;;;;0.00;0.00;;;3.60;60.00;;;;;;5056408;28;20087;-73
2021/10/26 05:00:11;;;;;;;0.00;0.00;;;3.60;60.10;;;;;;5056832;28;20155;-74
2021/10/26 05:02:38;;;;;;;0.00;0.00;;;3.70;60.10;;;;;;5054973;28;20029;-74
2021/10/26 05:05:08;;;;;;;0.00;0.00;;;3.70;60.00;;;;;;5056431;28;20029;-74
2021/10/26 05:07:34;;;;;;;0.00;0.00;;;3.70;60.00;;;;;;5056627;28;20036;-78
2021/10/26 05:10:00;;;;;;;0.00;0.00;;;3.80;60.00;;;;;;5055933;28;20029;-75
2021/10/26 05:12:26;;;;;;;0.08;0.00;;;3.80;60.00;;;;;;5055626;28;20505;-75
2021/10/26 05:14:53;;;;;;;0.00;0.00;;;3.90;59.90;;;;;;5071620;28;20530;-75
2021/10/26 05:17:21;;;;;;;0.00;0.00;;;3.90;59.80;;;;;;5071781;28;20469;-74
2021/10/26 05:19:49;;;;;;;0.00;0.00;;;4.00;59.70;;;;;;5055927;28;20461;-75
2021/10/26 05:22:17;;;;;;;0.00;0.00;;;4.00;59.60;;;;;;5071383;28;20532;-75
2021/10/26 05:24:43;;;;;;;0.00;0.00;;;4.10;59.60;;;;;;5054999;28;20049;-74
2021/10/26 05:27:10;;;;;;;0.00;0.00;;;4.20;59.50;;;;;;5056354;28;20108;-75
2021/10/26 05:29:39;;;;;;;0.10;0.00;;;4.20;59.40;;;;;;5054884;28;20037;-75
2021/10/26 05:32:06;;;;;;;0.00;0.00;;;4.30;59.40;;;;;;5071112;28;20021;-75
2021/10/26 05:34:32;;;;;;;0.00;0.00;;;4.30;59.30;;;;;;5054326;28;20112;-75
2021/10/26 05:36:58;;;;;;;0.00;0.00;;;4.40;59.20;;;;;;5055563;28;20059;-75
2021/10/26 05:39:24;;;;;;;0.05;0.00;;;4.50;59.10;;;;;;5055707;28;20033;-75
2021/10/26 05:41:50;;;;;;;0.32;0.00;;;4.50;59.00;;;;;;5055596;28;20028;-74
2021/10/26 05:44:15;;;;;;;0.00;0.00;;;4.60;59.00;;;;;;5055098;28;20036;-75
2021/10/26 05:46:41;;;;;;;0.00;0.00;;;4.70;58.90;;;;;;5055145;28;20112;-74
2021/10/26 05:49:07;;;;;;;0.10;0.00;;;4.80;58.80;;;;;;5055314;28;20043;-76
2021/10/26 05:51:33;;;;;;;0.00;0.00;;;4.80;58.70;;;;;;5070641;28;20025;-77
2021/10/26 05:53:58;;;;;;;0.00;0.00;;;4.90;58.50;;;;;;5054045;28;20032;-75
2021/10/26 05:56:24;;;;;;;0.00;0.00;;;5.00;58.50;;;;;;5054955;28;20112;-74
2021/10/26 05:58:53;;;;;;;0.00;0.00;;;5.10;58.30;;;;;;5055195;28;20035;-75
2021/10/26 06:01:21;;;;;;;0.00;0.00;;;5.20;58.30;;;;;;5055305;28;20365;-74
2021/10/26 06:03:47;;;;;;;0.00;0.00;;;5.20;58.10;;;;;;5055188;28;20027;-75
2021/10/26 06:06:13;;;;;;;0.05;0.00;;;5.30;58.00;;;;;;5070352;28;20071;-74
2021/10/26 06:08:39;;;;;;;0.00;0.00;;;5.30;57.90;;;;;;5054631;28;20065;-75
2021/10/26 06:11:09;;;;;;;0.10;0.10;;;5.40;57.80;;;;;;5054876;28;20021;-75
2021/10/26 06:13:39;;;;;;;0.00;0.00;;;5.50;57.70;;;;;;5053615;28;20028;-75
2021/10/26 06:16:04;;;;;;;0.00;0.00;;;5.60;57.50;;;;;;5053477;28;20115;-75
2021/10/26 06:18:30;;;;;;;0.00;0.00;;;5.60;57.30;;;;;;5054833;28;20060;-74
2021/10/26 06:20:57;;;;;;;0.00;0.00;;;5.70;57.20;;;;;;5054485;28;20472;-74
2021/10/26 06:23:23;;;;;;;0.00;0.00;;;5.80;57.10;;;;;;5053262;28;20087;-75
2021/10/26 06:25:49;;;;;;;0.00;0.00;;;5.80;57.00;;;;;;5054102;28;20219;-74
2021/10/26 06:28:15;;;;;;;0.00;0.00;;;5.90;56.90;;;;;;5054544;28;20504;-75
2021/10/26 06:30:42;;;;;;;0.10;0.10;;;5.90;56.80;;;;;;5054739;28;20381;-75
2021/10/26 06:33:09;;;;;;;0.00;0.00;;;6.00;56.70;;;;;;5054512;28;20049;-75
2021/10/26 06:35:35;;;;;;;0.00;0.00;;;6.00;56.70;;;;;;5053311;28;20106;-75
2021/10/26 06:38:00;;;;;;;0.00;0.00;;;6.20;56.70;;;;;;5054341;28;20028;-76
2021/10/26 06:40:28;;;;;;;0.00;0.00;;;6.30;56.60;;;;;;5053045;28;20029;-75
2021/10/26 06:42:54;;;;;;;0.00;0.00;;;6.40;56.40;;;;;;5054049;28;20032;-74
2021/10/26 06:45:19;;;;;;;0.00;0.00;;;6.50;56.20;;;;;;5052935;28;20025;-74
2021/10/26 06:47:45;;;;;;;0.00;0.00;;;6.60;56.10;;;;;;5054048;28;20082;-75
2021/10/26 06:50:11;;;;;;;0.00;0.00;;;6.70;55.90;;;;;;5070056;28;20036;-74
2021/10/26 06:52:37;;;;;;;0.00;0.00;;;6.80;55.70;;;;;;5053939;28;20055;-74
2021/10/26 06:55:07;;;;;;;0.00;0.00;;;6.90;55.50;;;;;;5053664;28;20036;-76
2021/10/26 06:57:33;;;;;;;0.00;0.00;;;7.10;55.40;;;;;;5054163;28;20033;-76
2021/10/26 07:00:00;;;;;;;0.00;0.00;;;7.20;55.20;;;;;;5054069;28;20028;-75
2021/10/26 07:02:26;;;;;;;0.00;0.00;;;7.40;55.00;;;;;;5053948;28;20033;-74
2021/10/26 07:04:54;;;;;;;0.00;0.00;;;7.70;54.80;;;;;;5054220;28;20032;-76
2021/10/26 07:07:19;;;;;;;0.00;0.00;;;7.90;54.40;;;;;;5053490;28;20331;-75
2021/10/26 07:09:45;;;;;;;0.00;0.00;;;8.20;54.10;;;;;;5053812;28;20039;-75
2021/10/26 07:12:12;;;;;;;0.20;0.00;;;8.40;53.60;;;;;;5053945;28;20033;-76
2021/10/26 07:14:38;;;;;;;0.00;0.00;;;8.70;53.30;;;;;;5053879;28;20044;-76
2021/10/26 07:17:04;;;;;;;0.00;0.00;;;9.00;52.90;;;;;;5053877;28;20025;-75
2021/10/26 07:19:31;;;;;;;0.00;0.00;;;9.20;52.50;;;;;;5053811;28;20031;-75
2021/10/26 07:21:58;;;;;;;0.00;0.00;;;9.40;52.10;;;;;;5053728;28;20036;-76
2021/10/26 07:24:25;;;;;;;0.00;0.00;;;9.60;51.70;;;;;;5054176;28;20074;-74
2021/10/26 07:26:51;;;;;;;0.00;0.00;;;9.90;51.30;;;;;;5052436;28;20106;-75
2021/10/26 07:29:17;;;;;;;0.00;0.00;;;10.10;50.90;;;;;;5053577;28;20025;-74
2021/10/26 07:31:44;;;;;;;0.00;0.00;;;10.30;50.60;;;;;;5054024;28;20487;-75
2021/10/26 07:34:12;;;;;;;0.00;0.00;;;10.50;50.30;;;;;;5069591;28;20021;-74
2021/10/26 07:36:46;;;;;;;0.00;0.00;;;10.70;49.90;;;;;;5053669;28;20025;-74
2021/10/26 07:41:47;;;;;;;0.00;0.00;;;11.30;49.10;;;;;;5053663;28;20098;-75
2021/10/26 07:44:12;;;;;;;0.00;0.00;;;11.70;49.50;;;;;;5053500;28;20029;-75
2021/10/26 07:46:38;;;;;;;0.00;0.00;;;12.10;48.50;;;;;;5054622;28;20124;-75
2021/10/26 07:49:06;;;;;;;0.00;0.00;;;12.60;48.10;;;;;;5057633;28;20036;-75
2021/10/26 07:51:33;;;;;;;0.00;0.00;;;13.10;47.50;;;;;;5073200;28;20032;-74
2021/10/26 07:53:59;;;;;;;0.00;0.00;;;13.70;46.70;;;;;;5072943;28;20057;-76
2021/10/26 07:56:25;;;;;;;0.00;0.00;;;14.30;46.10;;;;;;5057222;28;20055;-76
2021/10/26 07:58:50;;;;;;;0.00;0.00;;;15.10;45.40;;;;;;5057576;28;20033;-76
2021/10/26 08:01:17;;;;;;;0.00;0.00;;;15.80;44.30;;;;;;5057266;28;20071;-76
2021/10/26 08:03:42;;;;;;;0.00;0.00;;;16.50;42.90;;;;;;5057303;28;20044;-76
2021/10/26 08:06:09;;;;;;;0.00;0.00;;;17.10;41.60;;;;;;5057432;28;20024;-76
2021/10/26 08:08:35;;;;;;;0.00;0.00;;;17.60;40.30;;;;;;5057319;28;20033;-75
2021/10/26 08:11:02;;;;;;;0.00;0.00;;;18.00;38.90;;;;;;5057412;28;20484;-75
2021/10/26 08:13:28;;;;;;;0.00;0.00;;;18.40;37.80;;;;;;5072740;28;20135;-75
2021/10/26 08:15:54;;;;;;;0.00;0.00;;;18.80;37.00;;;;;;5056854;28;20102;-76
2021/10/26 08:18:20;;;;;;;0.00;0.00;;;19.20;36.10;;;;;;5055998;28;20099;-75
2021/10/26 08:20:50;;;;;;;0.00;0.00;;;19.40;35.50;;;;;;5056827;28;20504;-75
2021/10/26 08:23:19;;;;;;;0.00;0.00;;;19.70;34.80;;;;;;5055453;28;20060;-75
2021/10/26 08:25:47;;;;;;;0.00;0.00;;;19.70;34.10;;;;;;5073070;28;20025;-76
2021/10/26 08:28:15;;;;;;;0.00;0.00;;;19.80;34.00;;;;;;5056403;28;20033;-75
2021/10/26 08:31:00;;;;;;;0.00;0.00;;;20.00;33.90;;;;;;5055664;28;20029;-75
2021/10/26 08:35:51;;;;;;;0.00;0.00;;;20.30;33.40;;;;;;5056850;28;20115;-75
2021/10/26 08:38:17;;;;;;;0.00;0.00;;;20.60;33.00;;;;;;5056469;28;20040;-75
2021/10/26 08:40:47;;;;;;;0.00;0.00;;;20.80;32.80;;;;;;5056784;28;20021;-76
2021/10/26 08:43:18;;;;;;;0.00;0.00;;;21.00;32.70;;;;;;5056649;28;20101;-76
2021/10/26 08:45:48;;;;;;;0.00;0.00;;;21.30;32.10;;;;;;5072401;28;20025;-76
2021/10/26 08:48:23;;;;;;;0.00;0.00;;;21.50;31.90;;;;;;5056636;28;20029;-76
2021/10/26 08:50:49;;;;;;;;;;;21.60;31.30;;;;;;5072323;28;20033;-74
2021/10/26 08:53:16;;;;;;;0.00;0.00;;;21.70;32.10;;;;;;5056169;28;20000;-76
2021/10/26 08:55:47;;;;;;;0.00;0.00;;;22.00;31.10;;;;;;5056401;28;20059;-74
2021/10/26 08:58:12;;;;;;;0.00;0.00;;;21.90;30.80;;;;;;5055229;28;20086;-74
2021/10/26 09:00:38;;;;;;;0.00;0.00;;;22.10;30.70;;;;;;5056268;28;20021;-75
2021/10/26 09:03:35;;;;;;;0.00;0.00;;;22.20;30.50;;;;;;5072175;28;20423;-75
2021/10/26 09:06:03;;;;;;;0.00;0.00;;;22.10;30.20;;;;;;5056090;28;20115;-74
2021/10/26 09:08:29;;;;;;;0.00;0.00;;;22.20;30.30;;;;;;5056051;28;20112;-76
2021/10/26 09:11:02;;;;;;;0.00;0.00;;;22.30;30.30;;;;;;5056046;28;20051;-75
2021/10/26 09:19:16;;;;;;;0.00;0.00;;;22.20;30.10;;;;;;5056013;28;20059;-74
2021/10/26 09:21:44;;;;;;;0.00;0.00;;;22.20;30.10;;;;;;5054875;28;20033;-75
2021/10/26 09:24:15;;;;;;;0.00;0.00;;;22.20;30.40;;;;;;5054601;28;20178;-75
2021/10/26 09:27:05;;;;;;;0.00;0.00;;;22.10;30.30;;;;;;5054623;28;20025;-75
2021/10/26 09:29:47;;;;;;;0.00;0.00;;;22.10;30.40;;;;;;5055929;28;20036;-75
2021/10/26 09:32:30;;;;;;;0.00;0.00;;;22.10;30.20;;;;;;5055375;28;20029;-75
2021/10/26 09:34:59;;;;;;;0.00;0.00;;;22.20;30.50;;;;;;5055280;28;20028;-74
2021/10/26 09:37:31;;;;;;;0.00;0.00;;;22.30;30.30;;;;;;5071176;28;20025;-76
2021/10/26 09:40:01;;;;;;;0.00;0.00;;;22.40;30.40;;;;;;5055491;28;20492;-76
2021/10/26 09:42:28;;;;;;;0.00;0.00;;;22.60;30.30;;;;;;5055433;28;20029;-74
2021/10/26 09:45:02;;;;;;;0.00;0.00;;;23.00;30.00;;;;;;5055390;28;20020;-77
2021/10/26 09:47:30;;;;;;;0.00;0.00;;;23.10;29.90;;;;;;5054193;28;20032;-75
2021/10/26 09:49:59;;;;;;;0.00;0.00;;;23.30;29.70;;;;;;5054878;28;20372;-77
2021/10/26 09:52:32;;;;;;;0.00;0.00;;;23.40;29.60;;;;;;5054600;28;20029;-75
2021/10/26 09:55:05;;;;;;;0.00;0.00;;;23.70;29.50;;;;;;5055032;28;20017;-75
2021/10/26 09:57:38;;;;;;;0.00;0.00;;;24.00;29.40;;;;;;5070616;28;20420;-76
2021/10/26 10:00:07;;;;;;;0.00;0.00;;;24.40;29.20;;;;;;5055014;28;20069;-75
2021/10/26 10:02:33;;;;;;;0.00;0.00;;;24.50;29.00;;;;;;5054826;28;20508;-74
2021/10/26 10:05:00;;;;;;;0.00;0.00;;;24.70;28.80;;;;;;5054946;28;20087;-75
2021/10/26 10:07:32;;;;;;;0.00;0.00;;;24.70;28.60;;;;;;5053642;28;20053;-76
2021/10/26 10:10:17;;;;;;;0.00;0.00;;;24.90;28.70;;;;;;5070363;28;20464;-75
2021/10/26 10:12:45;;;;;;;0.00;0.00;;;24.90;28.30;;;;;;5054775;28;20036;-76
2021/10/26 10:15:13;;;;;;;0.00;0.00;;;24.90;28.30;;;;;;5054544;28;20076;-75
2021/10/26 10:17:40;;;;;;;0.00;0.00;;;24.80;28.30;;;;;;5054536;28;20021;-76
2021/10/26 10:20:11;;;;;;;0.00;0.00;;;25.00;28.30;;;;;;5053219;28;20029;-75
2021/10/26 10:22:41;;;;;;;0.00;0.00;;;25.30;28.30;;;;;;5054206;28;20048;-76
2021/10/26 10:25:09;;;;;;;0.00;0.00;;;25.50;28.20;;;;;;5053345;28;20021;-75
2021/10/26 10:27:38;;;;;;;0.00;0.00;;;25.50;27.90;;;;;;5054924;28;20020;-75
2021/10/26 10:30:11;;;;;;;0.00;0.00;;;25.60;28.00;;;;;;5054523;28;20044;-76
2021/10/26 10:32:38;;;;;;;0.00;0.00;;;25.70;27.80;;;;;;5054499;28;20032;-74
2021/10/26 10:35:12;;;;;;;0.00;0.00;;;25.60;27.80;;;;;;5054507;28;20020;-76
2021/10/26 10:37:38;;;;;;;;;;;25.80;27.80;;;;;;5054972;28;20021;-77
2021/10/26 10:40:07;;;;;;;0.00;0.00;;;25.80;28.00;;;;;;5053947;28;19927;-74
2021/10/26 10:42:46;;;;;;;0.00;0.00;;;25.90;27.80;;;;;;5070154;28;20029;-75
2021/10/26 10:45:42;;;;;;;0.00;0.00;;;26.00;27.80;;;;;;5054541;28;20036;-75
2021/10/26 10:48:28;;;;;;;0.00;0.00;;;26.20;27.60;;;;;;5052980;28;20045;-75
2021/10/26 10:51:20;;;;;;;0.00;0.00;;;26.20;27.50;;;;;;5053945;28;20083;-76
2021/10/26 10:53:47;;;;;;;0.00;0.00;;;26.20;27.50;;;;;;5053069;28;20037;-76
2021/10/26 10:56:17;;;;;;;0.00;0.00;;;26.10;27.40;;;;;;5053856;28;20396;-75
2021/10/26 10:58:44;;;;;;;0.00;0.00;;;26.00;27.30;;;;;;5054380;28;20112;-75
2021/10/26 11:01:20;;;;;;;0.00;0.00;;;26.00;27.40;;;;;;5053783;28;20021;-75
2021/10/26 11:03:46;;;;;;;0.00;0.00;;;26.10;27.30;;;;;;5053903;28;20034;-75
2021/10/26 11:06:43;;;;;;;0.00;0.00;;;26.20;27.40;;;;;;5053161;28;20390;-76
2021/10/26 11:09:28;;;;;;;0.00;0.00;;;26.40;27.20;;;;;;5054063;28;20035;-76
2021/10/26 11:12:18;;;;;;;0.00;0.00;;;26.30;27.10;;;;;;5054111;28;20025;-76
2021/10/26 11:15:02;;;;;;;0.00;0.00;;;26.20;27.10;;;;;;5053873;28;20033;-75
2021/10/26 11:20:05;;;;;;;0.00;0.00;;;26.20;27.00;;;;;;5053540;28;20025;-75
2021/10/26 11:23:15;;;;;;;0.00;0.00;;;26.20;27.10;;;;;;5053535;28;20035;-79
2021/10/26 11:25:44;;;;;;;0.00;0.00;;;26.10;27.00;;;;;;5053193;28;20362;-75
2021/10/26 11:28:12;;;;;;;0.00;0.00;;;26.10;27.20;;;;;;5053526;28;20420;-75
2021/10/26 11:30:44;;;;;;;0.00;0.00;;;26.10;27.20;;;;;;5053928;28;20025;-77
2021/10/26 11:33:13;;;;;;;0.00;0.00;;;26.20;27.20;;;;;;5053709;28;20048;-76
2021/10/26 11:35:56;;;;;;;0.00;0.00;;;26.30;27.20;;;;;;5053586;28;20025;-79
2021/10/26 11:38:46;;;;;;;0.00;0.00;;;26.30;27.00;;;;;;5053612;28;20028;-77
2021/10/26 11:41:14;;;;;;;0.00;0.00;;;26.40;27.10;;;;;;5054098;28;20122;-77
2021/10/26 11:43:49;;;;;;;0.00;0.00;;;26.50;27.00;;;;;;5069226;28;20041;-77
2021/10/26 11:46:20;;;;;;;0.00;0.00;;;26.50;26.90;;;;;;5053589;28;20040;-76
2021/10/26 11:48:50;;;;;;;0.00;0.00;;;26.50;27.00;;;;;;5053216;28;20117;-77
2021/10/26 11:51:28;;;;;;;0.00;0.00;;;26.40;27.00;;;;;;5053161;28;20473;-76
2021/10/26 11:53:56;;;;;;;0.00;0.00;;;26.40;27.10;;;;;;5052704;28;20033;-77
2021/10/26 11:56:26;;;;;;;0.00;0.00;;;26.70;27.10;;;;;;5053490;28;20025;-77
2021/10/26 11:59:07;;;;;;;0.00;0.00;;;26.80;26.90;;;;;;5052355;28;20074;-77
2021/10/26 12:01:45;;;;;;;0.00;0.00;;;26.70;26.80;;;;;;5068722;28;20036;-76
2021/10/26 12:04:19;;;;;;;0.00;0.00;;;26.50;26.80;;;;;;5053487;28;20073;-77
2021/10/26 12:06:46;;;;;;;;;;;26.40;26.90;;;;;;5053495;28;20075;-77
2021/10/26 12:09:14;;;;;;;0.00;0.00;;;26.30;27.10;;;;;;5052775;28;19964;-77
2021/10/26 12:11:43;;;;;;;0.00;0.00;;;26.20;27.00;;;;;;5053147;28;20029;-76
2021/10/26 12:14:14;;;;;;;0.00;0.00;;;26.00;27.10;;;;;;5053257;28;20021;-78
2021/10/26 12:17:01;;;;;;;0.00;0.00;;;25.80;27.30;;;;;;5053713;28;20112;-77
2021/10/26 12:19:28;;;;;;;0.00;0.00;;;25.80;27.40;;;;;;5053053;28;20037;-77
2021/10/26 12:22:01;;;;;;;0.00;0.00;;;25.90;27.40;;;;;;5053543;28;20027;-77
2021/10/26 12:24:29;;;;;;;0.00;0.00;;;26.10;27.20;;;;;;5053903;28;20055;-76
2021/10/26 12:27:07;;;;;;;0.00;0.00;;;26.10;27.10;;;;;;5053585;28;20037;-76
2021/10/26 12:29:42;;;;;;;0.00;0.00;;;26.00;27.00;;;;;;5052191;28;20025;-77
2021/10/26 12:32:13;;;;;;;0.00;0.00;;;26.00;27.20;;;;;;5053071;28;20033;-78
2021/10/26 12:34:43;;;;;;;0.00;0.00;;;26.20;27.30;;;;;;5054777;28;20074;-78
2021/10/26 12:37:31;;;;;;;0.00;0.00;;;26.50;27.20;;;;;;5056730;28;20384;-77
2021/10/26 12:40:19;;;;;;;0.00;0.00;;;26.60;27.00;;;;;;5056287;28;20044;-77
2021/10/26 12:43:06;;;;;;;0.00;0.00;;;26.40;27.00;;;;;;5055476;28;20049;-75
2021/10/26 12:45:40;;;;;;;0.00;0.00;;;26.40;27.10;;;;;;5056914;28;20071;-77
2021/10/26 12:48:09;;;;;;;0.00;0.00;;;26.30;27.20;;;;;;5056244;28;20452;-76
2021/10/26 12:50:46;;;;;;;0.00;0.00;;;26.20;27.20;;;;;;5056699;28;20086;-77
2021/10/26 12:53:39;;;;;;;0.00;0.00;;;26.20;27.30;;;;;;5055224;28;20377;-76
2021/10/26 12:56:20;;;;;;;0.00;0.00;;;26.20;27.20;;;;;;5056726;28;20032;-76
2021/10/26 12:58:54;;;;;;;0.00;0.00;;;26.50;27.30;;;;;;5059053;28;20101;-75
2021/10/26 13:01:22;;;;;;;0.00;0.00;;;26.60;27.20;;;;;;5056640;28;20025;-77
2021/10/26 13:04:13;;;;;;;0.00;0.00;;;26.40;27.20;;;;;;5056499;28;20104;-76
2021/10/26 13:06:52;;;;;;;0.00;0.00;;;26.10;27.20;;;;;;5056196;28;20046;-76
2021/10/26 13:09:42;;;;;;;0.00;0.00;;;25.50;27.20;;;;;;5055674;28;20033;-74
2021/10/26 13:12:17;;;;;;;0.00;0.00;;;25.10;27.40;;;;;;5056389;28;20037;-75
2021/10/26 13:14:44;;;;;;;0.00;0.00;;;24.80;27.60;;;;;;5056189;28;20191;-75
2021/10/26 13:17:33;;;;;;;0.00;0.00;;;24.40;27.80;;;;;;5056289;28;20113;-75